EC1AE-9
43.22.63N 005.47.47W
IN73CJ aprs.fi
43km/h, 178°
zuletzt gehört:
2022-01-17T12:52:29Z

APRS Siero [IN73CI], 0 Stunde(n), EC1AE-9 [02:31:38, 0s].
LEHU 43.22.63N 005.49.57WIN73CJ 3.130km 279°W01:31:06ZHelipuerto del HUCA: LEAS 180030Z 17003KT 130V200 CAVOK 05/02 Q1032=
EA1ABW 43.24.77N 005.47.77WIN73CJ 4.501km 351°N01:01:25ZMMDVM MMDVM HS Hat 439.8250/439.8250 CC1
33D00 43.21.63N 005.51.13WIN73BI 5.366km 255°WSW01:01:42Z33-D-00 Protección Civil REMER / Delegación del Gobierno en Asturias
EA1YR 43.22.09N 005.51.86WIN73BI 6.201km 265°W01:02:16ZMMDVM DVS 434.3500/434.3500 CC1
EA1L 43.20.38N 005.51.13WIN73BI 6.371km 235°SW01:27:48ZWind 114°/000kn, Böen bis 000kn, Temp 0.56c, Regen 0.0mm, letzte 24h 0.0mm, seit 0h 0.0mm, Baro 1030.1h, Hum: 91%(3EA1L-13)
ea1l@ure.es V=13.5V,T=??.?C(2EA1L)
LEMR 43.25.83N 005.49.60WIN73CK 7.123km 334°NNW01:31:07ZAerodromo de la Morgal: LEAS 180030Z 17003KT 130V200 CAVOK 05/02 Q1032=
EA1HWX 43.19.39N 005.50.84WIN73BH 7.310km 221°SW01:31:36ZMMDVM DMO 435.5000/435.5000 CC1
ED1ZAU 43.23.04N 005.52.75WIN73BJ 7.479km 279°W01:02:30ZRD625 438.5000/430.9000 CC1
LEGM 43.26.15N 005.49.84WIN73CK 7.808km 334°NNW01:31:07ZHelipuerto de La Morgal: LEAS 180030Z 17003KT 130V200 CAVOK 05/02 Q1032=
ED1ZAS 43.27.52N 005.40.17WIN73DL 13.510km 45°NE01:02:32ZRD985 438.2250/430.6250 CC1
ED1ZAE 43.27.99N 005.40.54WIN73DL 13.792km 41°NE01:17:53Z2m Voice 145.5875 -0.600 Mhz(3ED1ZAE-C)
WIDE3-3 ESAS3-3 IN73DL WWW.EA1URG.ORG(2ED1ZAE-3)
ED1ZAY 43.29.47N 005.56.54WIN73AL 18.130km 317°NW01:02:31ZRD625 438.3000/430.7000 CC1
EB1TK 43.32.22N 005.42.32WIN73DM 19.437km 20°NNE01:25:51ZWind 182°/004kn, Böen bis 006kn, Temp 7.22c, Regen 0.0mm, letzte 24h 0.0mm, seit 0h 0.0mm, Baro 1034.9h, Hum: 81%(3EB1TK-13)
EA1IEJ 43.31.81N 005.40.25WIN73DM 19.889km 28°NNE01:01:55ZMMDVM MMDVM HS Hat 438.8500/438.8500 CC6
EB1GEM 43.30.00N 005.36.07WIN73EM 20.678km 47°NE01:27:01ZWX3in1Plus2.0 U=13.3V,T=??.?C/??.?F(3EB1GEM-3)
LEEL 43.32.98N 005.41.71WIN73DN 21.021km 21°NNE01:31:08ZHelipuerto de El Musel: LEAS 180030Z 17003KT 130V200 CAVOK 05/02 Q1032=
EA1AHA 43.32.74N 005.54.36WIN73BN 21.437km 334°NNW00:31:46ZWind 180°/002kn, Böen bis 003kn, Temp 5.00c, Regen 0.0mm, letzte 24h 0.3mm, seit 0h 0.3mm, Baro 1033.9h, Hum: 82%(3EA1AHA-13)
MMDVM MMDVM HS Hat 432.0000/432.0000 CC1(2EA1AHA)
EA1HJA 43.28.10N 005.30.45WIN73FL 25.012km 65°ENE01:19:39Z IN73FL WX3IN1+ 2.0 - V=14.0V,TX TEMP=42.3C
EA1HJA@URE.ES(2EA1HJA-2)
ED1ZAD 43.07.90N 005.38.52WIN73ED 29.295km 156°SSE01:28:28ZED1ZAD-3 APRS Digi/Igate(3ED1ZAD-3)
EA1JAY 43.29.33N 005.26.78WIN73GL 30.455km 65°ENE01:31:11Z434.525MHz Nodo TETRA DMO(3EA1JAY-4)
EA1JAY(2EA1JAY-2)
EA1JBU 43.30.80N 005.16.20WIN73IM 44.621km 69°ENE01:31:11ZEA1JBU(3EA1JBU-2)
EA1JBE 43.30.90N 005.16.15WIN73IM 44.761km 69°ENE01:31:06ZEA1JBU(3EA1JBE-13)
MAIN QTH http://qrz.com/db/ea1jbe(2EA1JBE-1)
LETN 43.20.05N 006.22.69WIN63TI 47.915km 265°W01:31:06ZAerodromo de La Curiscada (Tineo): LEAS 180030Z 17003KT 130V200 CAVOK 05/02 Q1032=
EA1GHF 43.17.99N 006.22.79WIN63TH 48.551km 261°W01:12:08Z440 MMDVM Voice 434.40000MHz +0.0000MHz(3EA1GHF-D)

aprs.pl 5.0.011w DL3EL © 2006-2021 [1423531]